Current Conditions
Partly Cloudy
Conditions



Pressure
992.92 (hPa) - 29.32 (inHG)
Visibility

6.2 (mimiles) - 10.0 (km)
   Temperature
7  °C
45°F
7  °C
Dewpoint
100  %
 Humidity
   Wind Speed
9  mph
8  kts
14  km/h
4.0  m/s
   Wind Direction
 110°
East South
East
   Airport Data
EGTK
Location Oxford (Kidlington) 26 mi (41.83 km)
Metar :EGTK 221920Z 11008KT 9999 FEW012 07/07 Q0993
Fri 22nd November 19:20 pm
   Raw Metar Info
Raw METAR is the most common format in the world for the transmission of observational weather data. It is highly standardized through the International Civil Aviation Organization (ICAO), which allows it to be understood throughout most of the world.
   API Info
Data Provided by
https://www.checkwx.com/weather/EGTK
   © Info
CSS/SVG/PHP scripts were developed by weather34.com for use in the weather34 template © 2015-2019

Guide Info provided by Metar-Wikipedia